Classifiche di sempre
Migliori tempi personali validi di atleta tra tutti gli eventi e le stagioni. Ogni atleta compare una sola volta per divisione.
Cerca per nome e apri la pagina in cui è classificato questo record di divisione.
32,082 atleti in classifica
I finisher HYROX ELITE 15 sono tracciati separatamente — vedi la classifica Elite.
| Pos. | Pos. AG | Atleta | Nazionalità | Categoria età | TempoMiglior tempo | Distacco |
|---|---|---|---|---|---|---|
| 16451 | #3732 | Tuan NguyenUSA · M 35-39 · AG #3732 | USA | M 35-39 | 1:24:53 | +31:38 |
| 16452 | #1610 | Moritz TatschkeGER · M 16-24 · AG #1610 | GER | M 16-24 | 1:24:53 | +31:38 |
| 16453 | #4112 | Lars van KrimpenNED · M 25-29 · AG #4112 | NED | M 25-29 | 1:24:53 | +31:38 |
| 16454 | #5336 | Daniel DewGBR · M 30-34 · AG #5336 | GBR | M 30-34 | 1:24:53 | +31:38 |
| 16455 | #5342 | Francisco Jesus Hernandez MadrazoMEX · M 30-34 · AG #5342 | MEX | M 30-34 | 1:24:54 | +31:39 |
| 16456 | #1863 | Frank FleissnerGER · M 40-44 · AG #1863 | GER | M 40-44 | 1:24:54 | +31:39 |
| 16457 | #1864 | Tyler BelangerCAN · M 40-44 · AG #1864 | CAN | M 40-44 | 1:24:54 | +31:39 |
| 16458 | #1611 | Thomas ArnoldoITA · M 16-24 · AG #1611 | ITA | M 16-24 | 1:24:54 | +31:39 |
| 16459 | #1865 | Ronny AndersGER · M 40-44 · AG #1865 | GER | M 40-44 | 1:24:54 | +31:39 |
| 16460 | #3734 | Jochen SchmidtAUT · M 35-39 · AG #3734 | AUT | M 35-39 | 1:24:54 | +31:39 |
| 16461 | #5343 | Wyatt ThomasUSA · M 30-34 · AG #5343 | USA | M 30-34 | 1:24:54 | +31:39 |
| 16462 | #801 | Daniel Perez FariasMEX · M 45-49 · AG #801 | MEX | M 45-49 | 1:24:54 | +31:39 |
| 16463 | #5345 | Christophe SteinmannSUI · M 30-34 · AG #5345 | SUI | M 30-34 | 1:24:55 | +31:40 |
| 16464 | #4116 | Aaron FloresMEX · M 25-29 · AG #4116 | MEX | M 25-29 | 1:24:55 | +31:40 |
| 16465 | #5347 | Jean DominiciFRA · M 30-34 · AG #5347 | FRA | M 30-34 | 1:24:55 | +31:40 |
| 16466 | #5348 | Rondinelle DepaulaUSA · M 30-34 · AG #5348 | USA | M 30-34 | 1:24:55 | +31:40 |
| 16467 | #5346 | Andrea Di MartinoITA · M 30-34 · AG #5346 | ITA | M 30-34 | 1:24:55 | +31:40 |
| 16468 | #1612 | Louis BiscayFRA · M 16-24 · AG #1612 | FRA | M 16-24 | 1:24:55 | +31:40 |
| 16469 | #5344 | Jeremy KaneUSA · M 30-34 · AG #5344 | USA | M 30-34 | 1:24:55 | +31:40 |
| 16470 | #4117 | Matt FaubelUSA · M 25-29 · AG #4117 | USA | M 25-29 | 1:24:56 | +31:41 |
| 16471 | #4118 | James WatsonGBR · M 25-29 · AG #4118 | GBR | M 25-29 | 1:24:56 | +31:41 |
| 16472 | #4119 | Myles FaribidoGBR · M 25-29 · AG #4119 | GBR | M 25-29 | 1:24:56 | +31:41 |
| 16473 | #802 | Ales StubicarSLO · M 45-49 · AG #802 | SLO | M 45-49 | 1:24:56 | +31:41 |
| 16474 | #5350 | Camilo OrtizCOL · M 30-34 · AG #5350 | COL | M 30-34 | 1:24:56 | +31:41 |
| 16475 | #5352 | Bruno Besler de AquinoBRA · M 30-34 · AG #5352 | BRA | M 30-34 | 1:24:56 | +31:41 |
Pagina 659 di 1,284